Meridian Naval Air Station
KNMM : now visible

Airfield :











YOU CAN JOIN US ON...

 
LOGIN :

Register | Disclaimer

   EN    FR    IT 

 









Legend :    VFR   Marginal VFR   IFR   Intensive IFR   Very Intensive IFR
Visi :
Ceiling :
>= 8 km
>= 3000ft
5 to 8 km
1000 to 3000 ft
1500m to 5 km
500 to 1000 ft
800 to 1500m
200 to 500 ft
< 800m
< 200 ft
Symbols :   Thunderstorms  Fog  Heavy snow  Heavy precipitations  Wind > 20 kt






- Airport Elevation : 316 ft


KNMM - Meridian Naval Air Station

CURRENT METAR :
  • 191656Z VRB05KT 10SM FEW016 SCT032 BKN110 27/23 A3001 RMK AO2 SLP170 T02720233

EXPIRED METARs :
  • 191556Z 23006KT 10SM SCT015 BKN030 BKN042 27/23 A3002 RMK AO2 SLP172 T02670228
  • 191456Z 00000KT 10SM SCT015 BKN030 26/23 A3002 RMK AO2 SLP171 T02610228 51017

TAF TAF KNMM
Valid from the 19 at 15:00 until the 20 at 15:00 UTC


1915/2015 VRB06KT 9999 FEW012 BKN030 BKN220 QNH2995INS
BECMG 1915/1917 20007KT 9999 VCTS SCT030 BKN045CB BKN200 QNH2989INS
TEMPO 1917/1923 VRB10G18KT 4800 TSRA BR BKN040CB BKN065 BKN200
BECMG 2001/2003 VRB06KT 9999 VCTS BKN040CB BKN080 OVC200 QNH2994INS LAST NO AMDS AFT 1923/ NEXT 2115 AUTOMATED SENSOR METWATCH 1923 TIL 2120 T27/1918Z T23/2012Z FN20082
KZME FIR / North America



MET'MAP, your aeronautical weather chart ! - Copyright ORBIFLY December 2007 - Disclaimer

ORBIFLY MET'MAP TEAM :

Programming & Development : Alexandra Zaïnal
Original concept : Baudouin d'Aumeries
Technical & hardware support : Manuel Goepfert
Assistance : Marc-Olivier Méhu




SOURCES & CREDITS :

   NOAA       Earth
Advisory